N223TW KPHX-KSAN
Flight info
| Callsign | N223TW |
|---|---|
| Flight time | 1h 0m |
| Altitude | 43000 |
| Route | FYRBD1 MOHAK J2 HOGGZ LUCKI1 |
| Aircraft | C750/M-SBDE3FGHRWXY/S |
Departure
| Time | 2026-04-26 02:38 |
|---|---|
| Airport | Phoenix Sky Harbor International Airport (KPHX) |
Arrival
| Time | 2026-04-26 03:39 |
|---|---|
| Airport | San Diego International Airport (KSAN) |
| Time | Latitude | Longitude | Altitude | Speed | Heading |
|---|---|---|---|---|---|
| 2026-04-26 02:23 | 33.42710 | -112.01637 | 1123 ft | 0 kts | 311° |
| 2026-04-26 02:29 | 33.42711 | -112.01638 | 1127 ft | 0 kts | 311° |
| 2026-04-26 02:33 | 33.42726 | -112.01637 | 1126 ft | 7 kts | 17° |
| 2026-04-26 02:33 | 33.42775 | -112.01563 | 1126 ft | 16 kts | 81° |
| 2026-04-26 02:34 | 33.42776 | -112.01425 | 1127 ft | 20 kts | 90° |
| 2026-04-26 02:34 | 33.42771 | -112.01267 | 1120 ft | 19 kts | 84° |
| 2026-04-26 02:34 | 33.42775 | -112.01074 | 1128 ft | 30 kts | 89° |
| 2026-04-26 02:34 | 33.42776 | -112.00816 | 1127 ft | 28 kts | 91° |
| 2026-04-26 02:35 | 33.42775 | -112.00607 | 1128 ft | 23 kts | 91° |
| 2026-04-26 02:35 | 33.42794 | -112.00538 | 1126 ft | 0 kts | 41° |
| 2026-04-26 02:35 | 33.42800 | -112.00534 | 1128 ft | 4 kts | 31° |
| 2026-04-26 02:35 | 33.42868 | -112.00528 | 1132 ft | 20 kts | 2° |
| 2026-04-26 02:36 | 33.42993 | -112.00386 | 1130 ft | 33 kts | 79° |
| 2026-04-26 02:36 | 33.42994 | -112.00113 | 1129 ft | 27 kts | 89° |
| 2026-04-26 02:36 | 33.42994 | -111.99998 | 1129 ft | 20 kts | 90° |
| 2026-04-26 02:36 | 33.42994 | -111.99766 | 1129 ft | 34 kts | 90° |
| 2026-04-26 02:37 | 33.42994 | -111.99450 | 1130 ft | 34 kts | 90° |
| 2026-04-26 02:37 | 33.43015 | -111.99357 | 1131 ft | 0 kts | 39° |
| 2026-04-26 02:37 | 33.43015 | -111.99356 | 1131 ft | 2 kts | 38° |
| 2026-04-26 02:38 | 33.43094 | -111.99350 | 1132 ft | 12 kts | 330° |
| 2026-04-26 02:38 | 33.43101 | -111.99583 | 1133 ft | 78 kts | 269° |
| 2026-04-26 02:38 | 33.43106 | -112.00626 | 1221 ft | 148 kts | 272° |
| 2026-04-26 02:38 | 33.43097 | -112.01879 | 1911 ft | 160 kts | 267° |
| 2026-04-26 02:39 | 33.42996 | -112.03260 | 2561 ft | 174 kts | 265° |
| 2026-04-26 02:39 | 33.42919 | -112.04769 | 3233 ft | 190 kts | 267° |
| 2026-04-26 02:39 | 33.42864 | -112.06416 | 3919 ft | 206 kts | 267° |
| 2026-04-26 02:39 | 33.42805 | -112.08183 | 4628 ft | 219 kts | 266° |
| 2026-04-26 02:40 | 33.42741 | -112.10054 | 5335 ft | 230 kts | 265° |
| 2026-04-26 02:40 | 33.42667 | -112.12010 | 6041 ft | 238 kts | 263° |
| 2026-04-26 02:40 | 33.42041 | -112.13859 | 6717 ft | 244 kts | 234° |
| 2026-04-26 02:40 | 33.41044 | -112.15534 | 7754 ft | 251 kts | 233° |
| 2026-04-26 02:41 | 33.39840 | -112.17084 | 8721 ft | 261 kts | 217° |
| 2026-04-26 02:41 | 33.38156 | -112.17989 | 9704 ft | 273 kts | 196° |
| 2026-04-26 02:41 | 33.36228 | -112.18021 | 10617 ft | 285 kts | 174° |
| 2026-04-26 02:41 | 33.34325 | -112.17386 | 11602 ft | 288 kts | 168° |
| 2026-04-26 02:42 | 33.32398 | -112.16714 | 12602 ft | 286 kts | 173° |
| 2026-04-26 02:42 | 33.30444 | -112.16690 | 13558 ft | 278 kts | 194° |
| 2026-04-26 02:42 | 33.28636 | -112.17404 | 14469 ft | 272 kts | 211° |
| 2026-04-26 02:42 | 33.27141 | -112.18741 | 15416 ft | 267 kts | 227° |
| 2026-04-26 02:43 | 33.24868 | -112.22198 | 17472 ft | 262 kts | 233° |
| 2026-04-26 02:43 | 33.23758 | -112.23912 | 18465 ft | 260 kts | 234° |
| 2026-04-26 02:43 | 33.22654 | -112.25632 | 19401 ft | 260 kts | 234° |
| 2026-04-26 02:44 | 33.21552 | -112.27347 | 20354 ft | 261 kts | 234° |
| 2026-04-26 02:44 | 33.20439 | -112.29077 | 20973 ft | 275 kts | 234° |
| 2026-04-26 02:44 | 33.19207 | -112.30992 | 20995 ft | 306 kts | 234° |
| 2026-04-26 02:44 | 33.17851 | -112.33101 | 20995 ft | 334 kts | 234° |
| 2026-04-26 02:45 | 33.16373 | -112.35391 | 20978 ft | 360 kts | 234° |
| 2026-04-26 02:45 | 33.14806 | -112.37819 | 21249 ft | 375 kts | 234° |
| 2026-04-26 02:45 | 33.13199 | -112.40308 | 21879 ft | 380 kts | 234° |
| 2026-04-26 02:45 | 33.11602 | -112.42776 | 22701 ft | 379 kts | 234° |
| 2026-04-26 02:46 | 33.10003 | -112.45245 | 23719 ft | 373 kts | 234° |
| 2026-04-26 02:46 | 33.08432 | -112.47679 | 24635 ft | 367 kts | 234° |
| 2026-04-26 02:46 | 33.06884 | -112.50077 | 25581 ft | 361 kts | 234° |
| 2026-04-26 02:46 | 33.05358 | -112.52431 | 26549 ft | 355 kts | 234° |
| 2026-04-26 02:47 | 33.03869 | -112.54720 | 27551 ft | 343 kts | 234° |
| 2026-04-26 02:47 | 33.02437 | -112.56929 | 28577 ft | 330 kts | 234° |
| 2026-04-26 02:47 | 33.01081 | -112.59022 | 29869 ft | 302 kts | 234° |
| 2026-04-26 02:47 | 32.99849 | -112.60915 | 31107 ft | 279 kts | 234° |
| 2026-04-26 02:48 | 32.99081 | -112.62100 | 31807 ft | 266 kts | 235° |
| 2026-04-26 02:48 | 32.98006 | -112.63781 | 32895 ft | 244 kts | 237° |
| 2026-04-26 02:48 | 32.97135 | -112.65411 | 33979 ft | 222 kts | 241° |
| 2026-04-26 02:48 | 32.96269 | -112.67438 | 35265 ft | 192 kts | 245° |
| 2026-04-26 02:49 | 32.95938 | -112.68386 | 35914 ft | 176 kts | 246° |
| 2026-04-26 02:49 | 32.95544 | -112.69718 | 36580 ft | 163 kts | 249° |
| 2026-04-26 02:49 | 32.95245 | -112.70966 | 37165 ft | 154 kts | 251° |
| 2026-04-26 02:49 | 32.95018 | -112.72189 | 37600 ft | 148 kts | 252° |
| 2026-04-26 02:50 | 32.94853 | -112.73372 | 38065 ft | 141 kts | 253° |
| 2026-04-26 02:50 | 32.94704 | -112.74479 | 38525 ft | 130 kts | 253° |
| 2026-04-26 02:50 | 32.94555 | -112.75571 | 38236 ft | 152 kts | 254° |
| 2026-04-26 02:50 | 32.94459 | -112.77045 | 37329 ft | 201 kts | 259° |
| 2026-04-26 02:51 | 32.94248 | -112.78700 | 37338 ft | 209 kts | 251° |
| 2026-04-26 02:51 | 32.93907 | -112.80376 | 37742 ft | 209 kts | 253° |
| 2026-04-26 02:51 | 32.93645 | -112.82099 | 38078 ft | 213 kts | 255° |
| 2026-04-26 02:51 | 32.93425 | -112.83860 | 38379 ft | 217 kts | 255° |
| 2026-04-26 02:52 | 32.93190 | -112.85657 | 38618 ft | 222 kts | 255° |
| 2026-04-26 02:52 | 32.92941 | -112.87492 | 38830 ft | 227 kts | 255° |
| 2026-04-26 02:52 | 32.92687 | -112.89364 | 39040 ft | 232 kts | 255° |
| 2026-04-26 02:52 | 32.92429 | -112.91268 | 39346 ft | 233 kts | 256° |
| 2026-04-26 02:53 | 32.92172 | -112.93173 | 39688 ft | 233 kts | 256° |
| 2026-04-26 02:53 | 32.91913 | -112.95078 | 40039 ft | 233 kts | 256° |
| 2026-04-26 02:53 | 32.91654 | -112.96981 | 40394 ft | 233 kts | 256° |
| 2026-04-26 02:53 | 32.91400 | -112.98854 | 40763 ft | 231 kts | 256° |
| 2026-04-26 02:54 | 32.91142 | -113.00736 | 41138 ft | 229 kts | 256° |
| 2026-04-26 02:54 | 32.90890 | -113.02579 | 41636 ft | 223 kts | 256° |
| 2026-04-26 02:54 | 32.90646 | -113.04373 | 42114 ft | 217 kts | 256° |
| 2026-04-26 02:54 | 32.90407 | -113.06124 | 42559 ft | 211 kts | 256° |
| 2026-04-26 02:55 | 32.90171 | -113.07839 | 42801 ft | 213 kts | 255° |
| 2026-04-26 02:55 | 32.89923 | -113.09625 | 42802 ft | 221 kts | 257° |
| 2026-04-26 02:55 | 32.89667 | -113.11482 | 42763 ft | 232 kts | 257° |
| 2026-04-26 02:55 | 32.89401 | -113.13416 | 42760 ft | 241 kts | 257° |
| 2026-04-26 02:56 | 32.89126 | -113.15421 | 42784 ft | 250 kts | 257° |
| 2026-04-26 02:56 | 32.88840 | -113.17500 | 42777 ft | 260 kts | 257° |
| 2026-04-26 02:56 | 32.88541 | -113.19666 | 42784 ft | 269 kts | 257° |
| 2026-04-26 02:56 | 32.88230 | -113.21910 | 42778 ft | 279 kts | 257° |
| 2026-04-26 02:57 | 32.87913 | -113.24184 | 42773 ft | 288 kts | 256° |
| 2026-04-26 02:57 | 32.87581 | -113.26565 | 42772 ft | 296 kts | 255° |
| 2026-04-26 02:57 | 32.86891 | -113.31533 | 42779 ft | 312 kts | 257° |
| 2026-04-26 02:58 | 32.86165 | -113.36750 | 42781 ft | 327 kts | 257° |
| 2026-04-26 02:58 | 32.85402 | -113.42234 | 42780 ft | 344 kts | 257° |
| 2026-04-26 02:59 | 32.84595 | -113.47994 | 42782 ft | 361 kts | 257° |
| 2026-04-26 02:59 | 32.83749 | -113.54006 | 42787 ft | 376 kts | 258° |
| 2026-04-26 03:00 | 32.82865 | -113.60272 | 42785 ft | 391 kts | 258° |
| 2026-04-26 03:00 | 32.81948 | -113.66726 | 42789 ft | 405 kts | 258° |
| 2026-04-26 03:01 | 32.80995 | -113.73438 | 42779 ft | 418 kts | 258° |
| 2026-04-26 03:01 | 32.80006 | -113.80358 | 42781 ft | 428 kts | 257° |
| 2026-04-26 03:02 | 32.79018 | -113.87267 | 42783 ft | 422 kts | 257° |
| 2026-04-26 03:02 | 32.78029 | -113.94122 | 42778 ft | 420 kts | 257° |
| 2026-04-26 03:03 | 32.77545 | -114.01061 | 42778 ft | 423 kts | 265° |
| 2026-04-26 03:03 | 32.77477 | -114.08041 | 42774 ft | 421 kts | 264° |
| 2026-04-26 03:04 | 32.77403 | -114.14987 | 42784 ft | 422 kts | 268° |
| 2026-04-26 03:04 | 32.77757 | -114.21898 | 42792 ft | 421 kts | 268° |
| 2026-04-26 03:05 | 32.78181 | -114.28854 | 42805 ft | 421 kts | 269° |
| 2026-04-26 03:05 | 32.78596 | -114.35706 | 42186 ft | 411 kts | 270° |
| 2026-04-26 03:06 | 32.79042 | -114.39055 | 41493 ft | 412 kts | 275° |
| 2026-04-26 03:06 | 32.79774 | -114.42357 | 40854 ft | 413 kts | 280° |
| 2026-04-26 03:06 | 32.80678 | -114.45586 | 40249 ft | 410 kts | 280° |
| 2026-04-26 03:06 | 32.81556 | -114.48786 | 39659 ft | 405 kts | 280° |
| 2026-04-26 03:07 | 32.82414 | -114.51951 | 39098 ft | 401 kts | 280° |
| 2026-04-26 03:07 | 32.83279 | -114.55096 | 38539 ft | 397 kts | 280° |
| 2026-04-26 03:07 | 32.84138 | -114.58202 | 37871 ft | 393 kts | 279° |
| 2026-04-26 03:07 | 32.84983 | -114.61279 | 37201 ft | 389 kts | 279° |
| 2026-04-26 03:08 | 32.85815 | -114.64327 | 36553 ft | 386 kts | 279° |
| 2026-04-26 03:08 | 32.86642 | -114.67353 | 35927 ft | 382 kts | 279° |
| 2026-04-26 03:08 | 32.87322 | -114.70362 | 35307 ft | 372 kts | 273° |
| 2026-04-26 03:08 | 32.87712 | -114.73333 | 34714 ft | 363 kts | 268° |
| 2026-04-26 03:09 | 32.87846 | -114.76300 | 34131 ft | 356 kts | 263° |
| 2026-04-26 03:09 | 32.87782 | -114.79228 | 33519 ft | 351 kts | 262° |
| 2026-04-26 03:09 | 32.87719 | -114.82111 | 32859 ft | 348 kts | 262° |
| 2026-04-26 03:09 | 32.87666 | -114.84984 | 32217 ft | 345 kts | 262° |
| 2026-04-26 03:10 | 32.87605 | -114.87820 | 31797 ft | 338 kts | 262° |
| 2026-04-26 03:10 | 32.87548 | -114.90543 | 31803 ft | 327 kts | 262° |
| 2026-04-26 03:10 | 32.87478 | -114.93309 | 31819 ft | 341 kts | 262° |
| 2026-04-26 03:10 | 32.87402 | -114.96187 | 31824 ft | 355 kts | 262° |
| 2026-04-26 03:11 | 32.87332 | -114.99150 | 31825 ft | 369 kts | 262° |
| 2026-04-26 03:11 | 32.87265 | -115.02256 | 31837 ft | 382 kts | 263° |
| 2026-04-26 03:11 | 32.87126 | -115.08533 | 31826 ft | 371 kts | 262° |
| 2026-04-26 03:12 | 32.86979 | -115.14535 | 31804 ft | 355 kts | 262° |
| 2026-04-26 03:12 | 32.86837 | -115.20290 | 31809 ft | 341 kts | 262° |
| 2026-04-26 03:13 | 32.86698 | -115.25841 | 31806 ft | 330 kts | 261° |
| 2026-04-26 03:13 | 32.86558 | -115.31233 | 31810 ft | 331 kts | 261° |
| 2026-04-26 03:14 | 32.86460 | -115.34024 | 31859 ft | 344 kts | 259° |
| 2026-04-26 03:14 | 32.86099 | -115.36910 | 31357 ft | 366 kts | 255° |
| 2026-04-26 03:14 | 32.85644 | -115.40002 | 30753 ft | 393 kts | 256° |
| 2026-04-26 03:14 | 32.85184 | -115.43313 | 30169 ft | 418 kts | 256° |
| 2026-04-26 03:15 | 32.84708 | -115.46820 | 29537 ft | 441 kts | 257° |
| 2026-04-26 03:15 | 32.84160 | -115.50462 | 28862 ft | 443 kts | 255° |
| 2026-04-26 03:15 | 32.83587 | -115.53941 | 28177 ft | 418 kts | 255° |
| 2026-04-26 03:15 | 32.83033 | -115.57345 | 27508 ft | 431 kts | 255° |
| 2026-04-26 03:16 | 32.82456 | -115.60869 | 26848 ft | 427 kts | 255° |
| 2026-04-26 03:16 | 32.81916 | -115.64231 | 26273 ft | 400 kts | 255° |
| 2026-04-26 03:16 | 32.81400 | -115.67395 | 25382 ft | 381 kts | 255° |
| 2026-04-26 03:16 | 32.80894 | -115.70430 | 24483 ft | 368 kts | 255° |
| 2026-04-26 03:17 | 32.80406 | -115.73363 | 23619 ft | 356 kts | 255° |
| 2026-04-26 03:17 | 32.79939 | -115.76210 | 22885 ft | 342 kts | 255° |
| 2026-04-26 03:17 | 32.79509 | -115.78862 | 22840 ft | 313 kts | 255° |
| 2026-04-26 03:17 | 32.79109 | -115.81286 | 22839 ft | 293 kts | 254° |
| 2026-04-26 03:18 | 32.78723 | -115.83594 | 22838 ft | 277 kts | 254° |
| 2026-04-26 03:18 | 32.78441 | -115.85787 | 22831 ft | 263 kts | 259° |
| 2026-04-26 03:18 | 32.78305 | -115.87891 | 22831 ft | 247 kts | 258° |
| 2026-04-26 03:18 | 32.78153 | -115.89865 | 22838 ft | 233 kts | 257° |
| 2026-04-26 03:19 | 32.78006 | -115.91738 | 22787 ft | 223 kts | 257° |
| 2026-04-26 03:19 | 32.77871 | -115.93542 | 22586 ft | 217 kts | 257° |
| 2026-04-26 03:19 | 32.77745 | -115.95280 | 22479 ft | 203 kts | 257° |
| 2026-04-26 03:19 | 32.77628 | -115.96880 | 22530 ft | 186 kts | 256° |
| 2026-04-26 03:20 | 32.77517 | -115.98353 | 22524 ft | 172 kts | 256° |
| 2026-04-26 03:20 | 32.77414 | -115.99716 | 22524 ft | 159 kts | 255° |
| 2026-04-26 03:20 | 32.77320 | -116.00969 | 22530 ft | 146 kts | 255° |
| 2026-04-26 03:20 | 32.77226 | -116.02154 | 22550 ft | 150 kts | 254° |
| 2026-04-26 03:21 | 32.77118 | -116.03440 | 22051 ft | 164 kts | 255° |
| 2026-04-26 03:21 | 32.77006 | -116.04850 | 20599 ft | 188 kts | 256° |
| 2026-04-26 03:21 | 32.76881 | -116.06497 | 19008 ft | 211 kts | 257° |
| 2026-04-26 03:21 | 32.76762 | -116.08218 | 18374 ft | 195 kts | 258° |
| 2026-04-26 03:22 | 32.76666 | -116.09677 | 18119 ft | 167 kts | 257° |
| 2026-04-26 03:22 | 32.76555 | -116.11032 | 17377 ft | 166 kts | 256° |
| 2026-04-26 03:22 | 32.76444 | -116.12409 | 16546 ft | 169 kts | 257° |
| 2026-04-26 03:22 | 32.76338 | -116.13806 | 15787 ft | 170 kts | 257° |
| 2026-04-26 03:23 | 32.76231 | -116.15215 | 15033 ft | 171 kts | 257° |
| 2026-04-26 03:23 | 32.76136 | -116.16548 | 14876 ft | 154 kts | 256° |
| 2026-04-26 03:23 | 32.76018 | -116.17896 | 14918 ft | 181 kts | 256° |
| 2026-04-26 03:23 | 32.75884 | -116.19505 | 14923 ft | 210 kts | 258° |
| 2026-04-26 03:24 | 32.75748 | -116.21344 | 14914 ft | 236 kts | 259° |
| 2026-04-26 03:24 | 32.75599 | -116.23377 | 14913 ft | 257 kts | 259° |
| 2026-04-26 03:24 | 32.75427 | -116.25560 | 14845 ft | 281 kts | 259° |
| 2026-04-26 03:24 | 32.75233 | -116.28014 | 14265 ft | 316 kts | 261° |
| 2026-04-26 03:25 | 32.75028 | -116.30741 | 13597 ft | 346 kts | 261° |
| 2026-04-26 03:25 | 32.74805 | -116.33702 | 12840 ft | 371 kts | 261° |
| 2026-04-26 03:25 | 32.74568 | -116.36790 | 12101 ft | 366 kts | 261° |
| 2026-04-26 03:25 | 32.74343 | -116.39771 | 11377 ft | 351 kts | 261° |
| 2026-04-26 03:26 | 32.74125 | -116.42580 | 10632 ft | 333 kts | 261° |
| 2026-04-26 03:26 | 32.73912 | -116.45252 | 9986 ft | 316 kts | 260° |
| 2026-04-26 03:26 | 32.73719 | -116.47732 | 9916 ft | 286 kts | 260° |
| 2026-04-26 03:26 | 32.73546 | -116.49976 | 9911 ft | 262 kts | 259° |
| 2026-04-26 03:27 | 32.73367 | -116.52065 | 9959 ft | 247 kts | 258° |
| 2026-04-26 03:27 | 32.73165 | -116.54134 | 9418 ft | 258 kts | 259° |
| 2026-04-26 03:27 | 32.72962 | -116.56287 | 8864 ft | 266 kts | 259° |
| 2026-04-26 03:27 | 32.72768 | -116.58498 | 8321 ft | 273 kts | 262° |
| 2026-04-26 03:28 | 32.72573 | -116.60739 | 7943 ft | 276 kts | 262° |
| 2026-04-26 03:28 | 32.72377 | -116.62914 | 7960 ft | 252 kts | 262° |
| 2026-04-26 03:28 | 32.72197 | -116.64897 | 7961 ft | 233 kts | 262° |
| 2026-04-26 03:28 | 32.72023 | -116.66806 | 7522 ft | 240 kts | 262° |
| 2026-04-26 03:29 | 32.71832 | -116.68857 | 6764 ft | 256 kts | 264° |
| 2026-04-26 03:29 | 32.71640 | -116.70984 | 6052 ft | 260 kts | 264° |
| 2026-04-26 03:29 | 32.71454 | -116.73046 | 5976 ft | 239 kts | 264° |
| 2026-04-26 03:29 | 32.71282 | -116.74933 | 5972 ft | 221 kts | 264° |
| 2026-04-26 03:30 | 32.71121 | -116.76677 | 5966 ft | 204 kts | 264° |
| 2026-04-26 03:30 | 32.70972 | -116.78266 | 5956 ft | 190 kts | 264° |
| 2026-04-26 03:30 | 32.70848 | -116.79769 | 5972 ft | 177 kts | 265° |
| 2026-04-26 03:30 | 32.70780 | -116.81164 | 5971 ft | 160 kts | 266° |
| 2026-04-26 03:31 | 32.70568 | -116.82397 | 5934 ft | 146 kts | 250° |
| 2026-04-26 03:31 | 32.70223 | -116.83441 | 5952 ft | 130 kts | 252° |
| 2026-04-26 03:31 | 32.69918 | -116.84461 | 6004 ft | 136 kts | 252° |
| 2026-04-26 03:31 | 32.69586 | -116.85537 | 5983 ft | 139 kts | 252° |
| 2026-04-26 03:32 | 32.69251 | -116.86610 | 5985 ft | 139 kts | 252° |
| 2026-04-26 03:32 | 32.68914 | -116.87690 | 5978 ft | 139 kts | 251° |
| 2026-04-26 03:32 | 32.68600 | -116.88771 | 5992 ft | 139 kts | 252° |
| 2026-04-26 03:32 | 32.68260 | -116.89909 | 5751 ft | 152 kts | 252° |
| 2026-04-26 03:33 | 32.67896 | -116.91127 | 5498 ft | 158 kts | 252° |
| 2026-04-26 03:33 | 32.67530 | -116.92365 | 5240 ft | 159 kts | 251° |
| 2026-04-26 03:33 | 32.67286 | -116.93627 | 4976 ft | 158 kts | 269° |
| 2026-04-26 03:33 | 32.67494 | -116.94902 | 4741 ft | 157 kts | 285° |
| 2026-04-26 03:34 | 32.67808 | -116.96143 | 4487 ft | 157 kts | 284° |
| 2026-04-26 03:34 | 32.68106 | -116.97385 | 4232 ft | 158 kts | 284° |
| 2026-04-26 03:34 | 32.68407 | -116.98629 | 3986 ft | 159 kts | 285° |
| 2026-04-26 03:34 | 32.68715 | -116.99890 | 3741 ft | 159 kts | 283° |
| 2026-04-26 03:35 | 32.69019 | -117.01142 | 3495 ft | 156 kts | 283° |
| 2026-04-26 03:35 | 32.69322 | -117.02382 | 3247 ft | 156 kts | 284° |
| 2026-04-26 03:35 | 32.69624 | -117.03616 | 2988 ft | 155 kts | 284° |
| 2026-04-26 03:35 | 32.69922 | -117.04837 | 2743 ft | 153 kts | 284° |
| 2026-04-26 03:36 | 32.70216 | -117.06044 | 2496 ft | 151 kts | 284° |
| 2026-04-26 03:36 | 32.70508 | -117.07231 | 2271 ft | 148 kts | 284° |
| 2026-04-26 03:36 | 32.70788 | -117.08349 | 1951 ft | 137 kts | 283° |
| 2026-04-26 03:36 | 32.70968 | -117.09062 | 1741 ft | 133 kts | 284° |
| 2026-04-26 03:37 | 32.71216 | -117.10090 | 1472 ft | 126 kts | 283° |
| 2026-04-26 03:37 | 32.71445 | -117.11073 | 1267 ft | 123 kts | 283° |
| 2026-04-26 03:37 | 32.71675 | -117.12051 | 1087 ft | 124 kts | 282° |
| 2026-04-26 03:37 | 32.71918 | -117.13045 | 843 ft | 127 kts | 284° |
| 2026-04-26 03:38 | 32.72164 | -117.14035 | 679 ft | 124 kts | 284° |
| 2026-04-26 03:38 | 32.72409 | -117.15045 | 607 ft | 127 kts | 283° |
| 2026-04-26 03:38 | 32.72644 | -117.16030 | 493 ft | 121 kts | 283° |
| 2026-04-26 03:38 | 32.72872 | -117.16982 | 230 ft | 118 kts | 283° |
| 2026-04-26 03:39 | 32.73095 | -117.17889 | 38 ft | 111 kts | 284° |
| 2026-04-26 03:39 | 32.73281 | -117.18658 | 28 ft | 79 kts | 286° |
| 2026-04-26 03:39 | 32.73387 | -117.19074 | 22 ft | 16 kts | 290° |
| 2026-04-26 03:39 | 32.73447 | -117.19079 | 19 ft | 14 kts | 32° |
| 2026-04-26 03:40 | 32.73464 | -117.19064 | 19 ft | 1 kts | 37° |
| 2026-04-26 03:40 | 32.73468 | -117.19060 | 19 ft | 0 kts | 41° |
| 2026-04-26 03:40 | 32.73468 | -117.19059 | 19 ft | 0 kts | 41° |
| 2026-04-26 03:40 | 32.73472 | -117.19056 | 19 ft | 1 kts | 41° |
| 2026-04-26 03:41 | 32.73475 | -117.19053 | 19 ft | 0 kts | 42° |
| 2026-04-26 03:41 | 32.73476 | -117.19049 | 21 ft | 1 kts | 59° |
| 2026-04-26 03:41 | 32.73480 | -117.19007 | 18 ft | 16 kts | 99° |
| 2026-04-26 03:41 | 32.73444 | -117.18843 | 20 ft | 22 kts | 106° |
| 2026-04-26 03:42 | 32.73402 | -117.18677 | 24 ft | 24 kts | 109° |
| 2026-04-26 03:42 | 32.73352 | -117.18480 | 25 ft | 26 kts | 106° |
| 2026-04-26 03:42 | 32.73291 | -117.18230 | 23 ft | 35 kts | 105° |
| 2026-04-26 03:42 | 32.73253 | -117.17988 | 23 ft | 18 kts | 48° |
| 2026-04-26 03:43 | 32.73344 | -117.17957 | 27 ft | 14 kts | 12° |
| 2026-04-26 03:43 | 32.73403 | -117.17969 | 27 ft | 3 kts | 274° |
| 2026-04-26 03:43 | 32.73403 | -117.17975 | 27 ft | 0 kts | 272° |